sensor_id;sensor_type;location;lat;lon;timestamp;noise_LAeq;noise_LA_min;noise_LA_max;noise_LA01;noise_LA95
70245;Laerm;57637;49.272;8.590;2023-09-18T00:00:49;39.27;35.46;47.12;;
70245;Laerm;57637;49.272;8.590;2023-09-18T00:03:19;39.90;35.34;46.96;;
70245;Laerm;57637;49.272;8.590;2023-09-18T00:05:48;39.27;34.93;46.47;;
70245;Laerm;57637;49.272;8.590;2023-09-18T00:08:15;38.85;35.06;50.19;;
70245;Laerm;57637;49.272;8.590;2023-09-18T00:10:41;39.27;35.46;46.35;;
70245;Laerm;57637;49.272;8.590;2023-09-18T00:13:07;39.39;35.80;45.59;;
70245;Laerm;57637;49.272;8.590;2023-09-18T00:15:33;39.89;36.40;48.96;;
70245;Laerm;57637;49.272;8.590;2023-09-18T00:17:58;39.97;36.32;49.64;;
70245;Laerm;57637;49.272;8.590;2023-09-18T00:20:23;39.92;35.64;48.11;;
70245;Laerm;57637;49.272;8.590;2023-09-18T00:22:55;40.73;36.34;48.63;;
70245;Laerm;57637;49.272;8.590;2023-09-18T00:25:21;41.39;36.67;50.50;;
70245;Laerm;57637;49.272;8.590;2023-09-18T00:27:47;42.53;37.30;47.23;;
70245;Laerm;57637;49.272;8.590;2023-09-18T00:30:13;42.52;37.92;51.04;;
70245;Laerm;57637;49.272;8.590;2023-09-18T00:32:38;41.67;36.96;48.54;;
70245;Laerm;57637;49.272;8.590;2023-09-18T00:35:04;42.04;37.08;50.51;;
70245;Laerm;57637;49.272;8.590;2023-09-18T00:37:29;41.82;37.85;46.72;;
70245;Laerm;57637;49.272;8.590;2023-09-18T00:39:54;41.22;36.36;48.19;;
70245;Laerm;57637;49.272;8.590;2023-09-18T00:42:20;40.75;36.17;47.06;;
70245;Laerm;57637;49.272;8.590;2023-09-18T00:44:48;41.07;36.33;50.68;;
70245;Laerm;57637;49.272;8.590;2023-09-18T00:47:14;41.43;37.00;51.34;;
70245;Laerm;57637;49.272;8.590;2023-09-18T00:49:40;40.21;35.83;51.88;;
70245;Laerm;57637;49.272;8.590;2023-09-18T00:52:07;41.97;35.54;50.64;;
70245;Laerm;57637;49.272;8.590;2023-09-18T00:54:34;41.81;35.28;54.02;;
70245;Laerm;57637;49.272;8.590;2023-09-18T00:57:00;41.25;36.01;52.04;;
70245;Laerm;57637;49.272;8.590;2023-09-18T00:59:25;40.80;36.23;48.12;;
70245;Laerm;57637;49.272;8.590;2023-09-18T01:01:51;41.70;35.96;47.85;;
70245;Laerm;57637;49.272;8.590;2023-09-18T01:04:17;40.55;36.09;47.61;;
70245;Laerm;57637;49.272;8.590;2023-09-18T01:06:43;39.84;35.14;46.90;;
70245;Laerm;57637;49.272;8.590;2023-09-18T01:09:08;39.59;35.51;48.17;;
70245;Laerm;57637;49.272;8.590;2023-09-18T01:11:48;39.45;34.76;50.00;;
70245;Laerm;57637;49.272;8.590;2023-09-18T01:16:56;38.48;34.52;45.36;;
70245;Laerm;57637;49.272;8.590;2023-09-18T01:19:42;39.32;35.37;46.89;;
70245;Laerm;57637;49.272;8.590;2023-09-18T01:22:11;40.09;35.08;46.75;;
70245;Laerm;57637;49.272;8.590;2023-09-18T01:24:38;41.10;35.66;50.25;;
70245;Laerm;57637;49.272;8.590;2023-09-18T01:27:05;40.78;35.77;51.60;;
70245;Laerm;57637;49.272;8.590;2023-09-18T01:29:31;41.52;35.55;50.06;;
70245;Laerm;57637;49.272;8.590;2023-09-18T01:31:57;42.05;36.47;51.79;;
70245;Laerm;57637;49.272;8.590;2023-09-18T01:34:28;42.68;36.81;53.71;;
70245;Laerm;57637;49.272;8.590;2023-09-18T01:36:57;44.23;38.99;51.64;;
70245;Laerm;57637;49.272;8.590;2023-09-18T01:39:23;46.44;41.14;57.09;;
70245;Laerm;57637;49.272;8.590;2023-09-18T01:41:52;45.14;39.45;52.50;;
70245;Laerm;57637;49.272;8.590;2023-09-18T01:44:18;46.80;39.09;54.51;;
70245;Laerm;57637;49.272;8.590;2023-09-18T01:46:44;46.48;40.06;55.05;;
70245;Laerm;57637;49.272;8.590;2023-09-18T01:49:09;45.64;42.03;50.81;;
70245;Laerm;57637;49.272;8.590;2023-09-18T01:51:35;45.05;41.05;54.04;;
70245;Laerm;57637;49.272;8.590;2023-09-18T01:54:00;51.88;41.61;59.58;;
70245;Laerm;57637;49.272;8.590;2023-09-18T01:56:26;56.59;46.48;64.42;;
70245;Laerm;57637;49.272;8.590;2023-09-18T01:58:51;60.60;46.40;67.50;;
70245;Laerm;57637;49.272;8.590;2023-09-18T02:01:16;45.29;37.91;51.60;;
70245;Laerm;57637;49.272;8.590;2023-09-18T02:03:42;39.94;34.86;49.53;;
70245;Laerm;57637;49.272;8.590;2023-09-18T02:06:08;40.57;36.63;51.41;;
70245;Laerm;57637;49.272;8.590;2023-09-18T02:08:36;41.12;36.65;46.83;;
70245;Laerm;57637;49.272;8.590;2023-09-18T02:11:01;39.58;35.81;46.42;;
70245;Laerm;57637;49.272;8.590;2023-09-18T02:13:28;39.82;36.37;47.73;;
70245;Laerm;57637;49.272;8.590;2023-09-18T02:15:54;40.87;35.87;46.33;;
70245;Laerm;57637;49.272;8.590;2023-09-18T02:18:20;40.49;37.23;44.79;;
70245;Laerm;57637;49.272;8.590;2023-09-18T02:20:45;39.22;35.51;42.71;;
70245;Laerm;57637;49.272;8.590;2023-09-18T02:23:14;39.24;35.00;46.51;;
70245;Laerm;57637;49.272;8.590;2023-09-18T02:25:39;42.54;36.58;51.16;;
70245;Laerm;57637;49.272;8.590;2023-09-18T02:28:06;44.29;38.48;51.39;;
70245;Laerm;57637;49.272;8.590;2023-09-18T02:30:32;41.91;36.61;49.61;;
70245;Laerm;57637;49.272;8.590;2023-09-18T02:32:57;37.97;33.99;44.75;;
70245;Laerm;57637;49.272;8.590;2023-09-18T02:35:22;40.20;35.00;50.21;;
70245;Laerm;57637;49.272;8.590;2023-09-18T02:37:48;39.50;34.50;49.21;;
70245;Laerm;57637;49.272;8.590;2023-09-18T02:40:13;38.49;33.82;47.88;;
70245;Laerm;57637;49.272;8.590;2023-09-18T02:42:39;37.27;33.39;46.04;;
70245;Laerm;57637;49.272;8.590;2023-09-18T02:45:04;36.86;32.79;45.97;;
70245;Laerm;57637;49.272;8.590;2023-09-18T02:47:30;36.55;32.59;44.30;;
70245;Laerm;57637;49.272;8.590;2023-09-18T02:49:55;35.35;31.81;39.46;;
70245;Laerm;57637;49.272;8.590;2023-09-18T02:52:20;35.70;31.99;58.91;;
70245;Laerm;57637;49.272;8.590;2023-09-18T02:54:46;36.29;32.63;45.86;;
70245;Laerm;57637;49.272;8.590;2023-09-18T02:57:11;37.45;33.70;53.69;;
70245;Laerm;57637;49.272;8.590;2023-09-18T02:59:36;39.11;34.43;49.66;;
70245;Laerm;57637;49.272;8.590;2023-09-18T03:02:02;39.09;34.37;45.17;;
70245;Laerm;57637;49.272;8.590;2023-09-18T03:04:29;39.06;34.25;45.80;;
70245;Laerm;57637;49.272;8.590;2023-09-18T03:06:55;45.31;34.55;57.17;;
70245;Laerm;57637;49.272;8.590;2023-09-18T03:09:20;41.73;36.29;50.51;;
70245;Laerm;57637;49.272;8.590;2023-09-18T03:11:46;40.93;36.11;46.39;;
70245;Laerm;57637;49.272;8.590;2023-09-18T03:14:11;41.51;36.99;51.33;;
70245;Laerm;57637;49.272;8.590;2023-09-18T03:16:37;45.19;36.45;59.32;;
70245;Laerm;57637;49.272;8.590;2023-09-18T03:19:02;38.28;34.05;47.90;;
70245;Laerm;57637;49.272;8.590;2023-09-18T03:21:28;36.86;32.66;44.16;;
70245;Laerm;57637;49.272;8.590;2023-09-18T03:23:54;37.21;33.27;43.89;;
70245;Laerm;57637;49.272;8.590;2023-09-18T03:26:19;36.35;32.50;40.63;;
70245;Laerm;57637;49.272;8.590;2023-09-18T03:28:44;37.67;32.10;51.01;;
70245;Laerm;57637;49.272;8.590;2023-09-18T03:31:10;35.82;31.94;42.09;;
70245;Laerm;57637;49.272;8.590;2023-09-18T03:33:36;35.76;32.52;42.09;;
70245;Laerm;57637;49.272;8.590;2023-09-18T03:36:01;36.20;32.34;44.52;;
70245;Laerm;57637;49.272;8.590;2023-09-18T03:38:27;35.67;31.88;47.63;;
70245;Laerm;57637;49.272;8.590;2023-09-18T03:40:54;34.07;31.54;43.44;;
70245;Laerm;57637;49.272;8.590;2023-09-18T03:43:20;35.13;31.51;52.06;;
70245;Laerm;57637;49.272;8.590;2023-09-18T03:45:46;41.58;31.78;63.12;;
70245;Laerm;57637;49.272;8.590;2023-09-18T03:48:11;34.48;31.82;47.32;;
70245;Laerm;57637;49.272;8.590;2023-09-18T03:50:37;35.75;32.13;52.06;;
70245;Laerm;57637;49.272;8.590;2023-09-18T03:53:04;35.29;31.93;53.48;;
70245;Laerm;57637;49.272;8.590;2023-09-18T03:55:29;36.25;32.19;51.03;;
70245;Laerm;57637;49.272;8.590;2023-09-18T03:57:55;36.15;31.93;53.05;;
70245;Laerm;57637;49.272;8.590;2023-09-18T04:00:21;42.70;34.41;66.80;;
70245;Laerm;57637;49.272;8.590;2023-09-18T04:02:47;41.98;35.69;50.73;;
70245;Laerm;57637;49.272;8.590;2023-09-18T04:05:12;41.07;36.09;64.49;;
70245;Laerm;57637;49.272;8.590;2023-09-18T04:07:38;44.45;36.74;55.72;;
70245;Laerm;57637;49.272;8.590;2023-09-18T04:10:03;48.53;39.71;56.49;;
70245;Laerm;57637;49.272;8.590;2023-09-18T04:12:28;46.01;40.08;59.05;;
70245;Laerm;57637;49.272;8.590;2023-09-18T04:14:54;46.91;40.51;53.41;;
70245;Laerm;57637;49.272;8.590;2023-09-18T04:17:19;50.71;45.48;55.61;;
70245;Laerm;57637;49.272;8.590;2023-09-18T04:19:46;53.79;46.00;62.46;;
70245;Laerm;57637;49.272;8.590;2023-09-18T04:22:12;49.51;44.77;54.20;;
70245;Laerm;57637;49.272;8.590;2023-09-18T04:24:37;48.24;45.32;52.61;;
70245;Laerm;57637;49.272;8.590;2023-09-18T04:27:03;46.04;41.80;50.24;;
70245;Laerm;57637;49.272;8.590;2023-09-18T04:29:28;43.74;40.90;53.72;;
70245;Laerm;57637;49.272;8.590;2023-09-18T04:31:53;42.71;39.26;50.61;;
70245;Laerm;57637;49.272;8.590;2023-09-18T04:34:20;41.83;37.77;52.19;;
70245;Laerm;57637;49.272;8.590;2023-09-18T04:36:47;42.88;38.64;58.74;;
70245;Laerm;57637;49.272;8.590;2023-09-18T04:39:12;43.03;38.67;48.90;;
70245;Laerm;57637;49.272;8.590;2023-09-18T04:41:37;42.79;38.89;52.56;;
70245;Laerm;57637;49.272;8.590;2023-09-18T04:44:04;42.00;38.60;52.53;;
70245;Laerm;57637;49.272;8.590;2023-09-18T04:46:30;43.01;39.39;55.27;;
70245;Laerm;57637;49.272;8.590;2023-09-18T04:48:56;42.31;38.86;52.70;;
70245;Laerm;57637;49.272;8.590;2023-09-18T04:51:21;44.81;41.04;51.27;;
70245;Laerm;57637;49.272;8.590;2023-09-18T04:53:47;46.04;41.42;68.74;;
70245;Laerm;57637;49.272;8.590;2023-09-18T04:56:12;45.83;39.65;64.60;;
70245;Laerm;57637;49.272;8.590;2023-09-18T04:58:38;44.38;40.17;57.88;;
70245;Laerm;57637;49.272;8.590;2023-09-18T05:01:04;43.45;39.25;57.20;;
70245;Laerm;57637;49.272;8.590;2023-09-18T05:03:32;44.62;40.26;60.50;;
70245;Laerm;57637;49.272;8.590;2023-09-18T05:05:59;44.56;39.05;57.49;;
70245;Laerm;57637;49.272;8.590;2023-09-18T05:08:24;45.17;40.06;60.10;;
70245;Laerm;57637;49.272;8.590;2023-09-18T05:10:49;45.39;40.56;62.65;;
70245;Laerm;57637;49.272;8.590;2023-09-18T05:13:15;45.32;41.19;51.76;;
70245;Laerm;57637;49.272;8.590;2023-09-18T05:15:41;43.91;39.10;52.44;;
70245;Laerm;57637;49.272;8.590;2023-09-18T05:18:06;43.42;39.42;55.45;;
70245;Laerm;57637;49.272;8.590;2023-09-18T05:20:32;44.02;37.99;54.35;;
70245;Laerm;57637;49.272;8.590;2023-09-18T05:22:58;42.52;38.36;58.47;;
70245;Laerm;57637;49.272;8.590;2023-09-18T05:25:26;43.89;39.94;51.14;;
70245;Laerm;57637;49.272;8.590;2023-09-18T05:27:53;42.94;36.59;65.91;;
70245;Laerm;57637;49.272;8.590;2023-09-18T05:30:26;42.55;35.25;59.93;;
70245;Laerm;57637;49.272;8.590;2023-09-18T05:32:54;44.83;34.46;60.85;;
70245;Laerm;57637;49.272;8.590;2023-09-18T05:35:19;42.66;36.33;59.40;;
70245;Laerm;57637;49.272;8.590;2023-09-18T05:37:46;40.04;35.47;53.79;;
70245;Laerm;57637;49.272;8.590;2023-09-18T05:40:13;40.70;35.71;64.35;;
70245;Laerm;57637;49.272;8.590;2023-09-18T05:42:40;50.64;35.47;66.54;;
70245;Laerm;57637;49.272;8.590;2023-09-18T05:45:09;44.82;35.77;66.96;;
70245;Laerm;57637;49.272;8.590;2023-09-18T05:47:34;44.03;37.33;54.81;;
70245;Laerm;57637;49.272;8.590;2023-09-18T05:50:09;42.39;36.12;55.66;;
70245;Laerm;57637;49.272;8.590;2023-09-18T05:52:35;44.98;34.95;60.91;;
70245;Laerm;57637;49.272;8.590;2023-09-18T05:55:02;41.05;35.45;64.01;;
70245;Laerm;57637;49.272;8.590;2023-09-18T05:57:27;42.74;35.84;58.77;;
70245;Laerm;57637;49.272;8.590;2023-09-18T05:59:55;43.74;36.53;57.05;;
70245;Laerm;57637;49.272;8.590;2023-09-18T06:02:20;49.72;35.09;81.48;;
70245;Laerm;57637;49.272;8.590;2023-09-18T06:04:46;40.81;33.42;59.35;;
70245;Laerm;57637;49.272;8.590;2023-09-18T06:07:11;40.90;33.40;62.63;;
70245;Laerm;57637;49.272;8.590;2023-09-18T06:09:38;40.25;33.15;56.45;;
70245;Laerm;57637;49.272;8.590;2023-09-18T06:12:04;40.33;32.90;59.22;;
70245;Laerm;57637;49.272;8.590;2023-09-18T06:14:30;38.70;32.88;52.84;;
70245;Laerm;57637;49.272;8.590;2023-09-18T06:16:56;42.28;32.83;56.69;;
70245;Laerm;57637;49.272;8.590;2023-09-18T06:19:22;43.87;33.76;56.37;;
70245;Laerm;57637;49.272;8.590;2023-09-18T06:21:49;40.71;33.30;57.66;;
70245;Laerm;57637;49.272;8.590;2023-09-18T06:24:14;38.29;32.43;61.18;;
70245;Laerm;57637;49.272;8.590;2023-09-18T06:26:40;39.26;33.02;54.59;;
70245;Laerm;57637;49.272;8.590;2023-09-18T06:29:05;40.29;33.31;58.51;;
70245;Laerm;57637;49.272;8.590;2023-09-18T06:31:31;41.24;32.24;63.62;;
70245;Laerm;57637;49.272;8.590;2023-09-18T06:33:57;41.45;33.34;60.58;;
70245;Laerm;57637;49.272;8.590;2023-09-18T06:36:22;41.37;34.38;55.91;;
70245;Laerm;57637;49.272;8.590;2023-09-18T06:38:47;39.93;34.66;57.90;;
70245;Laerm;57637;49.272;8.590;2023-09-18T06:41:13;45.29;34.06;62.46;;
70245;Laerm;57637;49.272;8.590;2023-09-18T06:43:39;47.47;33.37;66.71;;
70245;Laerm;57637;49.272;8.590;2023-09-18T06:46:07;42.48;34.48;60.63;;
70245;Laerm;57637;49.272;8.590;2023-09-18T06:48:32;40.96;34.89;54.73;;
70245;Laerm;57637;49.272;8.590;2023-09-18T06:50:58;42.80;33.44;64.48;;
70245;Laerm;57637;49.272;8.590;2023-09-18T06:53:28;41.13;33.61;59.34;;
70245;Laerm;57637;49.272;8.590;2023-09-18T06:55:54;41.42;33.35;62.56;;
70245;Laerm;57637;49.272;8.590;2023-09-18T06:58:19;37.58;33.55;52.86;;
70245;Laerm;57637;49.272;8.590;2023-09-18T07:00:45;37.88;33.12;52.05;;
70245;Laerm;57637;49.272;8.590;2023-09-18T07:03:11;41.75;33.08;59.47;;
70245;Laerm;57637;49.272;8.590;2023-09-18T07:05:37;43.29;34.08;58.86;;
70245;Laerm;57637;49.272;8.590;2023-09-18T07:08:02;42.78;33.68;57.27;;
70245;Laerm;57637;49.272;8.590;2023-09-18T07:10:30;38.63;32.98;56.46;;
70245;Laerm;57637;49.272;8.590;2023-09-18T07:12:56;39.24;33.47;50.48;;
70245;Laerm;57637;49.272;8.590;2023-09-18T07:15:21;40.95;32.91;56.10;;
70245;Laerm;57637;49.272;8.590;2023-09-18T07:17:46;42.27;33.52;57.04;;
70245;Laerm;57637;49.272;8.590;2023-09-18T07:20:13;41.38;34.50;56.85;;
70245;Laerm;57637;49.272;8.590;2023-09-18T07:22:40;39.31;34.30;55.70;;
70245;Laerm;57637;49.272;8.590;2023-09-18T07:25:06;37.05;33.74;46.54;;
70245;Laerm;57637;49.272;8.590;2023-09-18T07:27:32;38.71;33.79;53.32;;
70245;Laerm;57637;49.272;8.590;2023-09-18T07:29:58;38.21;34.31;54.37;;
70245;Laerm;57637;49.272;8.590;2023-09-18T07:32:24;37.72;33.58;48.89;;
70245;Laerm;57637;49.272;8.590;2023-09-18T07:34:51;39.81;34.68;52.44;;
70245;Laerm;57637;49.272;8.590;2023-09-18T07:37:17;41.56;35.96;60.67;;
70245;Laerm;57637;49.272;8.590;2023-09-18T07:39:46;40.07;34.69;55.96;;
70245;Laerm;57637;49.272;8.590;2023-09-18T07:42:11;40.42;34.40;62.08;;
70245;Laerm;57637;49.272;8.590;2023-09-18T07:44:37;39.91;34.37;53.59;;
70245;Laerm;57637;49.272;8.590;2023-09-18T07:47:02;40.20;33.86;55.33;;
70245;Laerm;57637;49.272;8.590;2023-09-18T07:49:28;40.84;34.94;57.16;;
70245;Laerm;57637;49.272;8.590;2023-09-18T07:51:53;38.44;34.37;53.03;;
70245;Laerm;57637;49.272;8.590;2023-09-18T07:54:19;39.44;34.73;60.17;;
70245;Laerm;57637;49.272;8.590;2023-09-18T07:56:45;38.49;34.78;56.76;;
70245;Laerm;57637;49.272;8.590;2023-09-18T07:59:10;40.36;35.64;56.07;;
70245;Laerm;57637;49.272;8.590;2023-09-18T08:01:36;38.94;34.78;50.42;;
70245;Laerm;57637;49.272;8.590;2023-09-18T08:04:02;38.23;34.45;50.66;;
70245;Laerm;57637;49.272;8.590;2023-09-18T08:06:27;40.03;34.41;48.81;;
70245;Laerm;57637;49.272;8.590;2023-09-18T08:08:53;40.52;34.49;50.06;;
70245;Laerm;57637;49.272;8.590;2023-09-18T08:11:19;41.47;35.21;58.09;;
70245;Laerm;57637;49.272;8.590;2023-09-18T08:13:44;40.06;35.33;49.50;;
70245;Laerm;57637;49.272;8.590;2023-09-18T08:16:09;41.39;34.35;57.28;;
70245;Laerm;57637;49.272;8.590;2023-09-18T08:18:35;39.95;34.61;56.68;;
70245;Laerm;57637;49.272;8.590;2023-09-18T08:21:00;39.56;34.46;60.78;;
70245;Laerm;57637;49.272;8.590;2023-09-18T08:23:26;39.81;34.95;48.61;;
70245;Laerm;57637;49.272;8.590;2023-09-18T08:25:51;41.52;36.97;56.26;;
70245;Laerm;57637;49.272;8.590;2023-09-18T08:28:20;54.08;36.91;63.23;;
70245;Laerm;57637;49.272;8.590;2023-09-18T08:30:46;56.78;43.89;66.53;;
70245;Laerm;57637;49.272;8.590;2023-09-18T08:33:15;45.13;38.30;59.56;;
70245;Laerm;57637;49.272;8.590;2023-09-18T08:35:41;43.92;39.72;62.54;;
70245;Laerm;57637;49.272;8.590;2023-09-18T08:38:06;43.59;39.33;64.19;;
70245;Laerm;57637;49.272;8.590;2023-09-18T08:40:33;45.07;39.77;62.87;;
70245;Laerm;57637;49.272;8.590;2023-09-18T08:42:58;46.31;39.85;60.02;;
70245;Laerm;57637;49.272;8.590;2023-09-18T08:45:41;40.43;34.87;54.92;;
70245;Laerm;57637;49.272;8.590;2023-09-18T08:48:09;38.93;34.83;54.56;;
70245;Laerm;57637;49.272;8.590;2023-09-18T08:50:35;47.01;39.75;57.12;;
70245;Laerm;57637;49.272;8.590;2023-09-18T08:53:01;39.59;33.72;49.64;;
70245;Laerm;57637;49.272;8.590;2023-09-18T08:55:27;40.33;33.38;64.03;;
70245;Laerm;57637;49.272;8.590;2023-09-18T08:57:53;43.60;34.95;55.20;;
70245;Laerm;57637;49.272;8.590;2023-09-18T09:00:19;40.52;33.99;66.04;;
70245;Laerm;57637;49.272;8.590;2023-09-18T09:02:45;44.34;34.35;57.96;;
70245;Laerm;57637;49.272;8.590;2023-09-18T09:05:11;45.71;34.78;57.44;;
70245;Laerm;57637;49.272;8.590;2023-09-18T09:07:37;43.80;35.23;59.44;;
70245;Laerm;57637;49.272;8.590;2023-09-18T09:10:03;40.56;34.48;54.36;;
70245;Laerm;57637;49.272;8.590;2023-09-18T09:12:54;38.62;33.47;52.18;;
70245;Laerm;57637;49.272;8.590;2023-09-18T09:15:27;40.40;34.02;57.13;;
70245;Laerm;57637;49.272;8.590;2023-09-18T09:18:03;41.07;34.37;55.83;;
70245;Laerm;57637;49.272;8.590;2023-09-18T09:20:30;39.75;33.97;60.15;;
70245;Laerm;57637;49.272;8.590;2023-09-18T09:23:00;41.97;35.24;56.92;;
70245;Laerm;57637;49.272;8.590;2023-09-18T09:25:28;42.26;34.48;59.34;;
70245;Laerm;57637;49.272;8.590;2023-09-18T09:27:57;38.89;33.95;54.67;;
70245;Laerm;57637;49.272;8.590;2023-09-18T09:30:25;39.45;33.47;60.09;;
70245;Laerm;57637;49.272;8.590;2023-09-18T09:32:54;44.01;33.54;58.02;;
70245;Laerm;57637;49.272;8.590;2023-09-18T09:35:25;38.67;33.71;52.99;;
70245;Laerm;57637;49.272;8.590;2023-09-18T09:37:56;38.71;35.44;52.30;;
70245;Laerm;57637;49.272;8.590;2023-09-18T09:40:23;39.73;34.61;53.82;;
70245;Laerm;57637;49.272;8.590;2023-09-18T09:42:51;38.58;33.65;54.75;;
70245;Laerm;57637;49.272;8.590;2023-09-18T09:45:17;39.34;34.50;53.04;;
70245;Laerm;57637;49.272;8.590;2023-09-18T09:47:44;38.15;34.89;50.53;;
70245;Laerm;57637;49.272;8.590;2023-09-18T09:50:14;44.54;35.56;59.12;;
70245;Laerm;57637;49.272;8.590;2023-09-18T09:52:46;40.02;33.31;71.23;;
70245;Laerm;57637;49.272;8.590;2023-09-18T09:57:51;40.17;34.24;50.33;;
70245;Laerm;57637;49.272;8.590;2023-09-18T10:00:16;38.73;33.66;53.13;;
70245;Laerm;57637;49.272;8.590;2023-09-18T10:02:55;44.50;33.33;59.78;;
70245;Laerm;57637;49.272;8.590;2023-09-18T10:05:24;44.83;34.13;58.91;;
70245;Laerm;57637;49.272;8.590;2023-09-18T10:07:51;38.59;32.71;51.58;;
70245;Laerm;57637;49.272;8.590;2023-09-18T10:10:18;39.82;33.41;49.25;;
70245;Laerm;57637;49.272;8.590;2023-09-18T10:12:43;38.13;33.71;55.32;;
70245;Laerm;57637;49.272;8.590;2023-09-18T10:15:12;37.47;33.33;51.54;;
70245;Laerm;57637;49.272;8.590;2023-09-18T10:17:42;43.19;33.66;53.19;;
70245;Laerm;57637;49.272;8.590;2023-09-18T10:20:12;49.42;33.85;60.11;;
70245;Laerm;57637;49.272;8.590;2023-09-18T10:22:48;45.30;32.86;54.19;;
70245;Laerm;57637;49.272;8.590;2023-09-18T10:25:23;44.38;34.07;53.27;;
70245;Laerm;57637;49.272;8.590;2023-09-18T10:27:51;45.64;33.76;53.51;;
70245;Laerm;57637;49.272;8.590;2023-09-18T10:30:19;39.29;34.16;52.16;;
70245;Laerm;57637;49.272;8.590;2023-09-18T10:32:45;42.01;33.94;53.22;;
70245;Laerm;57637;49.272;8.590;2023-09-18T10:35:11;43.16;33.53;64.78;;
70245;Laerm;57637;49.272;8.590;2023-09-18T10:37:45;47.50;35.32;61.82;;
70245;Laerm;57637;49.272;8.590;2023-09-18T10:40:12;49.96;36.14;56.54;;
70245;Laerm;57637;49.272;8.590;2023-09-18T10:42:38;48.84;34.34;58.28;;
70245;Laerm;57637;49.272;8.590;2023-09-18T10:45:05;49.23;36.14;53.98;;
70245;Laerm;57637;49.272;8.590;2023-09-18T10:47:32;49.08;39.63;58.03;;
70245;Laerm;57637;49.272;8.590;2023-09-18T10:49:59;49.71;38.39;59.53;;
70245;Laerm;57637;49.272;8.590;2023-09-18T10:52:26;46.99;36.38;59.39;;
70245;Laerm;57637;49.272;8.590;2023-09-18T10:54:52;46.86;41.38;64.37;;
70245;Laerm;57637;49.272;8.590;2023-09-18T10:57:19;46.55;42.01;56.73;;
70245;Laerm;57637;49.272;8.590;2023-09-18T10:59:45;48.24;42.08;56.82;;
70245;Laerm;57637;49.272;8.590;2023-09-18T11:02:14;49.72;40.02;55.49;;
70245;Laerm;57637;49.272;8.590;2023-09-18T11:04:42;51.34;41.81;57.56;;
70245;Laerm;57637;49.272;8.590;2023-09-18T11:07:08;50.96;38.31;55.85;;
70245;Laerm;57637;49.272;8.590;2023-09-18T11:09:44;49.81;36.89;55.62;;
70245;Laerm;57637;49.272;8.590;2023-09-18T11:12:11;49.29;34.75;56.52;;
70245;Laerm;57637;49.272;8.590;2023-09-18T11:17:31;50.97;37.90;55.99;;
70245;Laerm;57637;49.272;8.590;2023-09-18T11:20:03;48.63;33.01;56.55;;
70245;Laerm;57637;49.272;8.590;2023-09-18T11:22:38;36.76;33.11;47.07;;
70245;Laerm;57637;49.272;8.590;2023-09-18T11:25:35;39.56;33.17;53.53;;
70245;Laerm;57637;49.272;8.590;2023-09-18T11:28:03;45.30;33.89;55.39;;
70245;Laerm;57637;49.272;8.590;2023-09-18T11:30:33;38.97;32.56;54.89;;
70245;Laerm;57637;49.272;8.590;2023-09-18T11:33:02;37.60;33.10;52.86;;
70245;Laerm;57637;49.272;8.590;2023-09-18T11:35:27;44.63;33.50;66.17;;
70245;Laerm;57637;49.272;8.590;2023-09-18T11:38:06;46.00;34.08;66.08;;
70245;Laerm;57637;49.272;8.590;2023-09-18T11:40:34;38.53;33.88;51.93;;
70245;Laerm;57637;49.272;8.590;2023-09-18T11:43:19;39.70;34.13;50.94;;
70245;Laerm;57637;49.272;8.590;2023-09-18T11:45:49;39.29;34.28;50.46;;
70245;Laerm;57637;49.272;8.590;2023-09-18T11:48:17;39.67;34.88;51.19;;
70245;Laerm;57637;49.272;8.590;2023-09-18T11:50:43;40.13;33.26;53.19;;
70245;Laerm;57637;49.272;8.590;2023-09-18T11:53:10;38.21;32.91;48.79;;
70245;Laerm;57637;49.272;8.590;2023-09-18T11:55:39;37.40;33.16;51.65;;
70245;Laerm;57637;49.272;8.590;2023-09-18T11:58:05;42.27;33.22;58.23;;
70245;Laerm;57637;49.272;8.590;2023-09-18T12:00:30;42.85;33.86;57.35;;
70245;Laerm;57637;49.272;8.590;2023-09-18T12:02:56;38.63;33.90;48.20;;
70245;Laerm;57637;49.272;8.590;2023-09-18T12:05:23;38.69;34.74;48.47;;
70245;Laerm;57637;49.272;8.590;2023-09-18T12:07:51;38.74;33.37;51.02;;
70245;Laerm;57637;49.272;8.590;2023-09-18T12:10:19;39.20;33.09;51.15;;
70245;Laerm;57637;49.272;8.590;2023-09-18T12:12:47;39.69;34.07;50.08;;
70245;Laerm;57637;49.272;8.590;2023-09-18T12:15:16;41.69;34.77;59.75;;
70245;Laerm;57637;49.272;8.590;2023-09-18T12:17:42;37.83;32.87;55.39;;
70245;Laerm;57637;49.272;8.590;2023-09-18T12:20:15;38.96;32.92;58.13;;
70245;Laerm;57637;49.272;8.590;2023-09-18T12:22:50;39.95;33.71;60.10;;
70245;Laerm;57637;49.272;8.590;2023-09-18T12:25:16;38.81;33.13;51.14;;
70245;Laerm;57637;49.272;8.590;2023-09-18T12:27:43;39.26;32.45;53.74;;
70245;Laerm;57637;49.272;8.590;2023-09-18T12:30:10;40.57;32.87;53.29;;
70245;Laerm;57637;49.272;8.590;2023-09-18T12:32:37;36.90;32.26;50.49;;
70245;Laerm;57637;49.272;8.590;2023-09-18T12:35:03;36.77;33.63;50.39;;
70245;Laerm;57637;49.272;8.590;2023-09-18T12:37:39;37.82;32.81;48.29;;
70245;Laerm;57637;49.272;8.590;2023-09-18T12:40:06;37.84;33.80;49.70;;
70245;Laerm;57637;49.272;8.590;2023-09-18T12:42:37;38.17;33.92;53.24;;
70245;Laerm;57637;49.272;8.590;2023-09-18T12:45:07;39.72;32.99;53.80;;
70245;Laerm;57637;49.272;8.590;2023-09-18T12:47:33;40.05;33.89;51.08;;
70245;Laerm;57637;49.272;8.590;2023-09-18T12:50:05;40.57;33.96;56.80;;
70245;Laerm;57637;49.272;8.590;2023-09-18T12:52:36;38.63;34.64;53.52;;
70245;Laerm;57637;49.272;8.590;2023-09-18T12:55:01;41.54;33.53;57.18;;
70245;Laerm;57637;49.272;8.590;2023-09-18T12:57:29;39.16;34.26;58.02;;
70245;Laerm;57637;49.272;8.590;2023-09-18T12:59:55;38.33;34.17;52.51;;
70245;Laerm;57637;49.272;8.590;2023-09-18T13:02:21;39.68;34.12;64.85;;
70245;Laerm;57637;49.272;8.590;2023-09-18T13:04:55;40.91;34.99;54.73;;
70245;Laerm;57637;49.272;8.590;2023-09-18T13:07:22;39.18;34.37;51.01;;
70245;Laerm;57637;49.272;8.590;2023-09-18T13:10:01;38.67;33.99;56.80;;
70245;Laerm;57637;49.272;8.590;2023-09-18T13:15:05;38.04;33.45;49.16;;
70245;Laerm;57637;49.272;8.590;2023-09-18T13:18:09;42.00;34.57;62.91;;
70245;Laerm;57637;49.272;8.590;2023-09-18T13:20:35;38.75;34.44;52.35;;
70245;Laerm;57637;49.272;8.590;2023-09-18T13:23:00;45.05;35.76;65.52;;
70245;Laerm;57637;49.272;8.590;2023-09-18T13:25:39;43.64;35.78;64.56;;
70245;Laerm;57637;49.272;8.590;2023-09-18T13:28:08;44.34;35.70;61.56;;
70245;Laerm;57637;49.272;8.590;2023-09-18T13:30:36;41.31;34.89;53.89;;
70245;Laerm;57637;49.272;8.590;2023-09-18T13:33:09;43.11;33.98;58.92;;
70245;Laerm;57637;49.272;8.590;2023-09-18T13:35:36;37.91;33.69;53.11;;
70245;Laerm;57637;49.272;8.590;2023-09-18T13:38:04;40.59;33.69;59.32;;
70245;Laerm;57637;49.272;8.590;2023-09-18T13:40:31;46.13;35.93;63.45;;
70245;Laerm;57637;49.272;8.590;2023-09-18T13:42:59;44.60;33.84;59.24;;
70245;Laerm;57637;49.272;8.590;2023-09-18T13:45:25;38.67;34.01;52.93;;
70245;Laerm;57637;49.272;8.590;2023-09-18T13:47:50;43.63;34.08;58.01;;
70245;Laerm;57637;49.272;8.590;2023-09-18T13:50:16;41.28;34.03;54.28;;
70245;Laerm;57637;49.272;8.590;2023-09-18T13:52:41;45.84;35.14;57.94;;
70245;Laerm;57637;49.272;8.590;2023-09-18T13:55:07;42.35;35.56;59.95;;